X  Sluiten METAR luchtvaart weer gegevens         EBOS Ostend-Bruges International Airport
Temperatuur
17°C Temperatuur
15°C Dauwpunt
88% Vochtigheid



Wind
15 KM/U
9 MPH
4 M/S
8 KTS



240°
WZW
Huidig weer

Mostly Cloudy Grotendeels bewolkt
Luchtdruk 1015 (hPa) - 29.97 (inHg)
Zicht 6 (mijl) - 10 (km)
Vliegveld
Vliegveld code EBOS

Locatie : Ostend-Bruges International Airport
Afstand: 60 (km)

Metar:
METAR EBOS 162020Z 24008KT 9999 FEW010 BKN015 17/15 Q1015 NOSIG

Tijd: 16-07-2024 22:20 CEST